sensor_id;sensor_type;location;lat;lon;timestamp;pressure;altitude;pressure_sealevel;temperature;humidity
15405;BME280;7801;48.124;11.590;2023-02-04T00:01:46;96315.19;;;5.73;98.02
15405;BME280;7801;48.124;11.590;2023-02-04T00:04:12;96313.72;;;5.94;97.51
15405;BME280;7801;48.124;11.590;2023-02-04T00:06:37;96301.84;;;5.91;97.38
15405;BME280;7801;48.124;11.590;2023-02-04T00:09:03;96312.37;;;5.91;97.92
15405;BME280;7801;48.124;11.590;2023-02-04T00:11:28;96309.03;;;5.84;98.08
15405;BME280;7801;48.124;11.590;2023-02-04T00:13:53;96317.25;;;5.71;98.51
15405;BME280;7801;48.124;11.590;2023-02-04T00:16:19;96315.75;;;5.75;99.19
15405;BME280;7801;48.124;11.590;2023-02-04T00:18:44;96311.91;;;5.94;98.62
15405;BME280;7801;48.124;11.590;2023-02-04T00:21:09;96313.28;;;5.85;99.21
15405;BME280;7801;48.124;11.590;2023-02-04T00:23:35;96319.59;;;5.84;98.76
15405;BME280;7801;48.124;11.590;2023-02-04T00:26:00;96323.94;;;5.90;99.36
15405;BME280;7801;48.124;11.590;2023-02-04T00:28:25;96318.06;;;5.88;99.31
15405;BME280;7801;48.124;11.590;2023-02-04T00:30:51;96319.91;;;5.87;98.83
15405;BME280;7801;48.124;11.590;2023-02-04T00:33:16;96317.97;;;5.95;98.08
15405;BME280;7801;48.124;11.590;2023-02-04T00:35:41;96316.84;;;5.91;98.61
15405;BME280;7801;48.124;11.590;2023-02-04T00:38:07;96328.88;;;6.03;98.80
15405;BME280;7801;48.124;11.590;2023-02-04T00:40:32;96327.78;;;5.99;98.93
15405;BME280;7801;48.124;11.590;2023-02-04T00:42:58;96344.06;;;5.84;98.81
15405;BME280;7801;48.124;11.590;2023-02-04T00:45:23;96335.22;;;6.02;98.85
15405;BME280;7801;48.124;11.590;2023-02-04T00:47:49;96328.91;;;5.75;99.42
15405;BME280;7801;48.124;11.590;2023-02-04T00:50:15;96335.44;;;5.72;100.00
15405;BME280;7801;48.124;11.590;2023-02-04T00:52:40;96327.47;;;5.84;99.68
15405;BME280;7801;48.124;11.590;2023-02-04T00:55:06;96335.78;;;5.76;99.57
15405;BME280;7801;48.124;11.590;2023-02-04T00:57:32;96342.19;;;5.80;99.97
15405;BME280;7801;48.124;11.590;2023-02-04T00:59:57;96349.84;;;5.81;99.80
15405;BME280;7801;48.124;11.590;2023-02-04T01:02:24;96354.84;;;5.83;99.67
15405;BME280;7801;48.124;11.590;2023-02-04T01:04:51;96356.13;;;5.80;99.46
15405;BME280;7801;48.124;11.590;2023-02-04T01:07:17;96357.75;;;5.81;100.00
15405;BME280;7801;48.124;11.590;2023-02-04T01:09:42;96361.81;;;5.89;99.94
15405;BME280;7801;48.124;11.590;2023-02-04T01:12:08;96368.97;;;5.77;99.51
15405;BME280;7801;48.124;11.590;2023-02-04T01:14:33;96384.94;;;5.87;99.73
15405;BME280;7801;48.124;11.590;2023-02-04T01:16:58;96386.13;;;5.79;99.36
15405;BME280;7801;48.124;11.590;2023-02-04T01:19:24;96381.25;;;5.88;100.00
15405;BME280;7801;48.124;11.590;2023-02-04T01:21:49;96379.03;;;5.80;99.23
15405;BME280;7801;48.124;11.590;2023-02-04T01:24:14;96379.16;;;5.73;99.70
15405;BME280;7801;48.124;11.590;2023-02-04T01:26:40;96372.06;;;5.74;99.53
15405;BME280;7801;48.124;11.590;2023-02-04T01:29:05;96373.47;;;5.65;99.61
15405;BME280;7801;48.124;11.590;2023-02-04T01:31:30;96371.03;;;5.75;99.24
15405;BME280;7801;48.124;11.590;2023-02-04T01:33:58;96375.78;;;5.90;98.59
15405;BME280;7801;48.124;11.590;2023-02-04T01:36:23;96374.06;;;5.83;98.73
15405;BME280;7801;48.124;11.590;2023-02-04T01:38:48;96364.91;;;5.86;99.23
15405;BME280;7801;48.124;11.590;2023-02-04T01:41:15;96362.28;;;5.86;98.76
15405;BME280;7801;48.124;11.590;2023-02-04T01:43:40;96370.38;;;5.96;97.85
15405;BME280;7801;48.124;11.590;2023-02-04T01:46:06;96369.81;;;5.94;97.22
15405;BME280;7801;48.124;11.590;2023-02-04T01:48:32;96391.47;;;5.84;97.42
15405;BME280;7801;48.124;11.590;2023-02-04T01:51:05;96402.13;;;5.90;97.90
15405;BME280;7801;48.124;11.590;2023-02-04T01:53:32;96401.44;;;5.94;97.61
15405;BME280;7801;48.124;11.590;2023-02-04T01:55:58;96404.88;;;6.11;96.53
15405;BME280;7801;48.124;11.590;2023-02-04T01:58:23;96394.91;;;6.13;96.29
15405;BME280;7801;48.124;11.590;2023-02-04T02:00:49;96410.53;;;6.03;97.02
15405;BME280;7801;48.124;11.590;2023-02-04T02:03:15;96400.81;;;6.20;96.58
15405;BME280;7801;48.124;11.590;2023-02-04T02:05:46;96407.69;;;6.22;95.37
15405;BME280;7801;48.124;11.590;2023-02-04T02:08:14;96401.44;;;6.28;95.73
15405;BME280;7801;48.124;11.590;2023-02-04T02:10:42;96405.59;;;6.24;95.87
15405;BME280;7801;48.124;11.590;2023-02-04T02:13:10;96407.19;;;6.25;95.78
15405;BME280;7801;48.124;11.590;2023-02-04T02:15:37;96409.06;;;6.41;95.94
15405;BME280;7801;48.124;11.590;2023-02-04T02:18:02;96412.16;;;6.21;95.33
15405;BME280;7801;48.124;11.590;2023-02-04T02:20:28;96416.78;;;6.31;95.17
15405;BME280;7801;48.124;11.590;2023-02-04T02:23:03;96409.44;;;6.49;94.53
15405;BME280;7801;48.124;11.590;2023-02-04T02:25:31;96428.31;;;6.41;95.00
15405;BME280;7801;48.124;11.590;2023-02-04T02:27:57;96437.97;;;6.36;95.24
15405;BME280;7801;48.124;11.590;2023-02-04T02:30:23;96431.09;;;6.35;94.76
15405;BME280;7801;48.124;11.590;2023-02-04T02:32:51;96436.78;;;6.43;94.40
15405;BME280;7801;48.124;11.590;2023-02-04T02:35:16;96444.63;;;6.27;95.31
15405;BME280;7801;48.124;11.590;2023-02-04T02:37:42;96439.47;;;6.32;95.96
15405;BME280;7801;48.124;11.590;2023-02-04T02:40:09;96449.09;;;6.26;95.08
15405;BME280;7801;48.124;11.590;2023-02-04T02:42:36;96439.22;;;6.16;95.59
15405;BME280;7801;48.124;11.590;2023-02-04T02:45:07;96436.13;;;6.36;95.61
15405;BME280;7801;48.124;11.590;2023-02-04T02:47:35;96436.59;;;6.33;95.72
15405;BME280;7801;48.124;11.590;2023-02-04T02:50:01;96436.75;;;6.27;95.74
15405;BME280;7801;48.124;11.590;2023-02-04T02:52:27;96438.34;;;6.28;96.10
15405;BME280;7801;48.124;11.590;2023-02-04T02:54:53;96435.13;;;6.26;95.94
15405;BME280;7801;48.124;11.590;2023-02-04T02:57:20;96444.41;;;6.28;95.51
15405;BME280;7801;48.124;11.590;2023-02-04T02:59:47;96444.41;;;6.28;95.82
15405;BME280;7801;48.124;11.590;2023-02-04T03:02:15;96439.69;;;6.13;95.55
15405;BME280;7801;48.124;11.590;2023-02-04T03:04:45;96439.78;;;6.18;95.72
15405;BME280;7801;48.124;11.590;2023-02-04T03:07:14;96453.81;;;6.24;95.32
15405;BME280;7801;48.124;11.590;2023-02-04T03:09:41;96457.75;;;6.22;94.90
15405;BME280;7801;48.124;11.590;2023-02-04T03:12:07;96458.13;;;6.13;95.19
15405;BME280;7801;48.124;11.590;2023-02-04T03:14:33;96446.31;;;6.16;94.95
15405;BME280;7801;48.124;11.590;2023-02-04T03:17:01;96456.72;;;6.23;94.85
15405;BME280;7801;48.124;11.590;2023-02-04T03:19:28;96463.03;;;6.22;94.25
15405;BME280;7801;48.124;11.590;2023-02-04T03:21:54;96463.25;;;6.20;94.08
15405;BME280;7801;48.124;11.590;2023-02-04T03:24:20;96478.59;;;6.23;93.80
15405;BME280;7801;48.124;11.590;2023-02-04T03:26:46;96471.06;;;6.15;93.77
15405;BME280;7801;48.124;11.590;2023-02-04T03:29:11;96471.34;;;6.02;94.01
15405;BME280;7801;48.124;11.590;2023-02-04T03:31:37;96481.16;;;6.06;94.11
15405;BME280;7801;48.124;11.590;2023-02-04T03:34:03;96485.31;;;6.02;94.05
15405;BME280;7801;48.124;11.590;2023-02-04T03:36:29;96494.34;;;6.06;93.22
15405;BME280;7801;48.124;11.590;2023-02-04T03:38:54;96496.09;;;6.01;93.47
15405;BME280;7801;48.124;11.590;2023-02-04T03:41:20;96499.94;;;6.10;93.30
15405;BME280;7801;48.124;11.590;2023-02-04T03:43:46;96507.94;;;6.15;92.80
15405;BME280;7801;48.124;11.590;2023-02-04T03:46:11;96509.56;;;6.33;92.47
15405;BME280;7801;48.124;11.590;2023-02-04T03:48:36;96508.34;;;6.24;92.47
15405;BME280;7801;48.124;11.590;2023-02-04T03:51:02;96516.41;;;6.17;92.79
15405;BME280;7801;48.124;11.590;2023-02-04T03:53:27;96518.47;;;6.15;93.30
15405;BME280;7801;48.124;11.590;2023-02-04T03:55:52;96530.94;;;6.19;93.00
15405;BME280;7801;48.124;11.590;2023-02-04T03:58:18;96534.06;;;6.16;93.61
15405;BME280;7801;48.124;11.590;2023-02-04T04:00:43;96540.53;;;6.26;93.61
15405;BME280;7801;48.124;11.590;2023-02-04T04:03:08;96542.47;;;6.02;92.75
15405;BME280;7801;48.124;11.590;2023-02-04T04:05:34;96545.16;;;6.18;92.65
15405;BME280;7801;48.124;11.590;2023-02-04T04:07:59;96550.31;;;6.13;92.34
15405;BME280;7801;48.124;11.590;2023-02-04T04:10:25;96548.37;;;6.09;91.58
15405;BME280;7801;48.124;11.590;2023-02-04T04:12:50;96545.28;;;6.12;91.57
15405;BME280;7801;48.124;11.590;2023-02-04T04:15:16;96552.38;;;6.23;91.04
15405;BME280;7801;48.124;11.590;2023-02-04T04:17:41;96547.13;;;6.11;89.50
15405;BME280;7801;48.124;11.590;2023-02-04T04:20:07;96554.91;;;6.06;90.17
15405;BME280;7801;48.124;11.590;2023-02-04T04:22:32;96561.91;;;6.12;90.81
15405;BME280;7801;48.124;11.590;2023-02-04T04:24:58;96559.94;;;6.08;90.32
15405;BME280;7801;48.124;11.590;2023-02-04T04:27:24;96559.62;;;6.04;90.19
15405;BME280;7801;48.124;11.590;2023-02-04T04:29:51;96561.16;;;5.89;89.63
15405;BME280;7801;48.124;11.590;2023-02-04T04:32:16;96558.38;;;5.83;89.21
15405;BME280;7801;48.124;11.590;2023-02-04T04:34:41;96556.69;;;5.89;89.51
15405;BME280;7801;48.124;11.590;2023-02-04T04:37:07;96560.34;;;5.76;88.93
15405;BME280;7801;48.124;11.590;2023-02-04T04:39:32;96568.47;;;5.63;89.83
15405;BME280;7801;48.124;11.590;2023-02-04T04:41:58;96574.44;;;5.70;89.72
15405;BME280;7801;48.124;11.590;2023-02-04T04:44:23;96577.28;;;5.69;89.26
15405;BME280;7801;48.124;11.590;2023-02-04T04:46:48;96579.13;;;5.80;88.69
15405;BME280;7801;48.124;11.590;2023-02-04T04:49:14;96586.56;;;5.71;88.97
15405;BME280;7801;48.124;11.590;2023-02-04T04:51:40;96587.63;;;5.59;88.02
15405;BME280;7801;48.124;11.590;2023-02-04T04:54:07;96595.41;;;5.53;88.50
15405;BME280;7801;48.124;11.590;2023-02-04T04:56:32;96592.31;;;5.57;87.88
15405;BME280;7801;48.124;11.590;2023-02-04T04:58:58;96595.75;;;5.57;88.53
15405;BME280;7801;48.124;11.590;2023-02-04T05:01:23;96608.91;;;5.57;88.69
15405;BME280;7801;48.124;11.590;2023-02-04T05:03:48;96607.16;;;5.63;88.24
15405;BME280;7801;48.124;11.590;2023-02-04T05:06:14;96619.66;;;5.56;88.31
15405;BME280;7801;48.124;11.590;2023-02-04T05:08:40;96618.97;;;5.60;88.11
15405;BME280;7801;48.124;11.590;2023-02-04T05:11:05;96627.91;;;5.59;87.30
15405;BME280;7801;48.124;11.590;2023-02-04T05:13:30;96612.78;;;5.55;87.32
15405;BME280;7801;48.124;11.590;2023-02-04T05:15:56;96620.88;;;5.41;87.93
15405;BME280;7801;48.124;11.590;2023-02-04T05:18:21;96618.59;;;5.45;87.92
15405;BME280;7801;48.124;11.590;2023-02-04T05:20:47;96604.31;;;5.29;87.64
15405;BME280;7801;48.124;11.590;2023-02-04T05:23:12;96612.91;;;5.36;87.68
15405;BME280;7801;48.124;11.590;2023-02-04T05:25:37;96617.00;;;5.32;87.80
15405;BME280;7801;48.124;11.590;2023-02-04T05:28:03;96635.88;;;5.29;87.08
15405;BME280;7801;48.124;11.590;2023-02-04T05:30:29;96640.56;;;5.27;87.15
15405;BME280;7801;48.124;11.590;2023-02-04T05:32:54;96641.13;;;5.29;87.03
15405;BME280;7801;48.124;11.590;2023-02-04T05:35:19;96647.19;;;5.30;87.10
15405;BME280;7801;48.124;11.590;2023-02-04T05:37:45;96647.16;;;5.06;87.42
15405;BME280;7801;48.124;11.590;2023-02-04T05:40:12;96648.81;;;5.19;87.12
15405;BME280;7801;48.124;11.590;2023-02-04T05:42:38;96648.81;;;5.31;86.47
15405;BME280;7801;48.124;11.590;2023-02-04T05:45:04;96655.66;;;5.32;85.66
15405;BME280;7801;48.124;11.590;2023-02-04T05:47:29;96665.06;;;5.51;87.12
15405;BME280;7801;48.124;11.590;2023-02-04T05:49:54;96669.53;;;5.50;85.12
15405;BME280;7801;48.124;11.590;2023-02-04T05:52:20;96667.84;;;5.56;86.17
15405;BME280;7801;48.124;11.590;2023-02-04T05:54:45;96669.44;;;5.57;85.50
15405;BME280;7801;48.124;11.590;2023-02-04T05:57:11;96684.53;;;5.38;85.44
15405;BME280;7801;48.124;11.590;2023-02-04T05:59:36;96683.59;;;5.44;85.93
15405;BME280;7801;48.124;11.590;2023-02-04T06:02:01;96691.03;;;5.47;85.64
15405;BME280;7801;48.124;11.590;2023-02-04T06:04:27;96703.66;;;5.57;84.84
15405;BME280;7801;48.124;11.590;2023-02-04T06:06:52;96704.56;;;5.63;84.75
15405;BME280;7801;48.124;11.590;2023-02-04T06:09:17;96711.78;;;5.79;84.65
15405;BME280;7801;48.124;11.590;2023-02-04T06:11:42;96712.12;;;5.71;84.10
15405;BME280;7801;48.124;11.590;2023-02-04T06:14:08;96711.22;;;5.77;84.41
15405;BME280;7801;48.124;11.590;2023-02-04T06:16:35;96721.84;;;5.70;84.43
15405;BME280;7801;48.124;11.590;2023-02-04T06:19:00;96732.97;;;5.72;84.93
15405;BME280;7801;48.124;11.590;2023-02-04T06:21:25;96732.38;;;5.59;85.47
15405;BME280;7801;48.124;11.590;2023-02-04T06:23:51;96735.09;;;5.64;86.34
15405;BME280;7801;48.124;11.590;2023-02-04T06:26:16;96742.31;;;5.57;86.67
15405;BME280;7801;48.124;11.590;2023-02-04T06:28:42;96747.47;;;5.51;86.30
15405;BME280;7801;48.124;11.590;2023-02-04T06:31:08;96755.94;;;5.53;86.69
15405;BME280;7801;48.124;11.590;2023-02-04T06:33:34;96750.47;;;5.67;86.45
15405;BME280;7801;48.124;11.590;2023-02-04T06:36:01;96756.53;;;5.67;86.81
15405;BME280;7801;48.124;11.590;2023-02-04T06:38:27;96746.78;;;5.56;86.74
15405;BME280;7801;48.124;11.590;2023-02-04T06:40:52;96750.09;;;5.51;87.58
15405;BME280;7801;48.124;11.590;2023-02-04T06:43:18;96750.00;;;5.70;87.47
15405;BME280;7801;48.124;11.590;2023-02-04T06:45:44;96756.56;;;5.79;86.79
15405;BME280;7801;48.124;11.590;2023-02-04T06:48:09;96761.56;;;5.69;87.50
15405;BME280;7801;48.124;11.590;2023-02-04T06:50:34;96756.16;;;5.64;87.71
15405;BME280;7801;48.124;11.590;2023-02-04T06:52:59;96756.31;;;5.69;87.53
15405;BME280;7801;48.124;11.590;2023-02-04T06:55:26;96756.44;;;5.74;87.79
15405;BME280;7801;48.124;11.590;2023-02-04T06:57:51;96760.75;;;5.57;87.27
15405;BME280;7801;48.124;11.590;2023-02-04T07:00:17;96756.88;;;5.71;86.86
15405;BME280;7801;48.124;11.590;2023-02-04T07:02:42;96759.97;;;5.68;86.33
15405;BME280;7801;48.124;11.590;2023-02-04T07:05:10;96764.31;;;5.74;86.15
15405;BME280;7801;48.124;11.590;2023-02-04T07:07:35;96766.91;;;5.50;85.62
15405;BME280;7801;48.124;11.590;2023-02-04T07:10:00;96769.25;;;5.40;86.10
15405;BME280;7801;48.124;11.590;2023-02-04T07:12:26;96773.78;;;5.51;85.90
15405;BME280;7801;48.124;11.590;2023-02-04T07:14:51;96775.81;;;5.49;85.98
15405;BME280;7801;48.124;11.590;2023-02-04T07:17:17;96783.19;;;5.59;86.29
15405;BME280;7801;48.124;11.590;2023-02-04T07:19:42;96784.87;;;5.53;86.22
15405;BME280;7801;48.124;11.590;2023-02-04T07:22:07;96793.53;;;5.42;86.03
15405;BME280;7801;48.124;11.590;2023-02-04T07:24:33;96785.59;;;5.61;85.26
15405;BME280;7801;48.124;11.590;2023-02-04T07:26:58;96796.22;;;5.66;84.09
15405;BME280;7801;48.124;11.590;2023-02-04T07:29:23;96804.25;;;5.59;84.38
15405;BME280;7801;48.124;11.590;2023-02-04T07:31:49;96797.91;;;5.48;84.01
15405;BME280;7801;48.124;11.590;2023-02-04T07:34:17;96807.09;;;5.58;84.16
15405;BME280;7801;48.124;11.590;2023-02-04T07:36:43;96806.59;;;5.49;83.81
15405;BME280;7801;48.124;11.590;2023-02-04T07:39:08;96820.84;;;5.60;83.31
15405;BME280;7801;48.124;11.590;2023-02-04T07:41:34;96819.03;;;5.42;84.04
15405;BME280;7801;48.124;11.590;2023-02-04T07:44:00;96825.91;;;5.43;84.49
15405;BME280;7801;48.124;11.590;2023-02-04T07:46:25;96834.75;;;5.48;84.06
15405;BME280;7801;48.124;11.590;2023-02-04T07:48:50;96830.66;;;5.52;83.32
15405;BME280;7801;48.124;11.590;2023-02-04T07:51:16;96837.75;;;5.52;82.45
15405;BME280;7801;48.124;11.590;2023-02-04T07:53:41;96842.94;;;5.59;83.52
15405;BME280;7801;48.124;11.590;2023-02-04T07:56:06;96844.75;;;5.58;82.29
15405;BME280;7801;48.124;11.590;2023-02-04T07:58:32;96838.47;;;5.59;82.45
15405;BME280;7801;48.124;11.590;2023-02-04T08:00:57;96845.09;;;5.62;82.58
15405;BME280;7801;48.124;11.590;2023-02-04T08:03:22;96844.75;;;5.58;82.22
15405;BME280;7801;48.124;11.590;2023-02-04T08:05:48;96843.03;;;5.64;80.99
15405;BME280;7801;48.124;11.590;2023-02-04T08:08:13;96840.09;;;5.72;80.45
15405;BME280;7801;48.124;11.590;2023-02-04T08:10:41;96850.50;;;5.67;80.83
15405;BME280;7801;48.124;11.590;2023-02-04T08:13:06;96852.09;;;5.68;82.05
15405;BME280;7801;48.124;11.590;2023-02-04T08:15:31;96851.44;;;5.72;81.28
15405;BME280;7801;48.124;11.590;2023-02-04T08:17:57;96850.66;;;5.83;81.18
15405;BME280;7801;48.124;11.590;2023-02-04T08:20:22;96855.53;;;5.98;80.30
15405;BME280;7801;48.124;11.590;2023-02-04T08:22:48;96853.06;;;5.85;81.46
15405;BME280;7801;48.124;11.590;2023-02-04T08:25:13;96858.88;;;5.75;79.98
15405;BME280;7801;48.124;11.590;2023-02-04T08:27:39;96865.84;;;5.70;80.63
15405;BME280;7801;48.124;11.590;2023-02-04T08:30:04;96870.56;;;5.79;79.69
15405;BME280;7801;48.124;11.590;2023-02-04T08:32:30;96877.16;;;5.89;80.39
15405;BME280;7801;48.124;11.590;2023-02-04T08:34:57;96880.50;;;5.96;79.51
15405;BME280;7801;48.124;11.590;2023-02-04T08:37:22;96877.63;;;5.97;79.67
15405;BME280;7801;48.124;11.590;2023-02-04T08:39:48;96893.69;;;6.07;79.40
15405;BME280;7801;48.124;11.590;2023-02-04T08:42:14;96890.81;;;6.62;88.41
15405;BME280;7801;48.124;11.590;2023-02-04T08:44:40;96878.66;;;7.36;92.01
15405;BME280;7801;48.124;11.590;2023-02-04T08:47:05;96892.31;;;7.33;84.14
15405;BME280;7801;48.124;11.590;2023-02-04T08:49:31;96887.34;;;8.05;91.96
15405;BME280;7801;48.124;11.590;2023-02-04T08:51:56;96887.75;;;7.69;80.36
15405;BME280;7801;48.124;11.590;2023-02-04T08:54:21;96893.00;;;7.97;82.92
15405;BME280;7801;48.124;11.590;2023-02-04T08:56:47;96894.59;;;7.70;80.67
15405;BME280;7801;48.124;11.590;2023-02-04T08:59:12;96894.59;;;7.70;83.31
15405;BME280;7801;48.124;11.590;2023-02-04T09:01:38;96897.81;;;8.00;86.38
15405;BME280;7801;48.124;11.590;2023-02-04T09:04:03;96893.75;;;7.81;79.08
15405;BME280;7801;48.124;11.590;2023-02-04T09:06:28;96904.13;;;7.99;84.22
15405;BME280;7801;48.124;11.590;2023-02-04T09:08:53;96912.97;;;8.21;84.65
15405;BME280;7801;48.124;11.590;2023-02-04T09:11:19;96909.53;;;7.36;74.89
15405;BME280;7801;48.124;11.590;2023-02-04T09:13:44;96917.81;;;7.16;74.24
15405;BME280;7801;48.124;11.590;2023-02-04T09:16:11;96916.22;;;6.92;76.18
15405;BME280;7801;48.124;11.590;2023-02-04T09:18:38;96932.75;;;6.75;75.97
15405;BME280;7801;48.124;11.590;2023-02-04T09:21:04;96921.16;;;6.41;76.77
15405;BME280;7801;48.124;11.590;2023-02-04T09:23:30;96923.66;;;6.48;77.48
15405;BME280;7801;48.124;11.590;2023-02-04T09:25:58;96923.53;;;6.31;76.94
15405;BME280;7801;48.124;11.590;2023-02-04T09:28:24;96933.12;;;6.26;77.33
15405;BME280;7801;48.124;11.590;2023-02-04T09:30:49;96931.38;;;6.08;78.15
15405;BME280;7801;48.124;11.590;2023-02-04T09:33:16;96927.31;;;5.94;77.15
15405;BME280;7801;48.124;11.590;2023-02-04T09:35:43;96915.53;;;5.96;77.82
15405;BME280;7801;48.124;11.590;2023-02-04T09:38:13;96930.97;;;5.93;78.10
15405;BME280;7801;48.124;11.590;2023-02-04T09:40:42;96935.59;;;6.09;78.23
15405;BME280;7801;48.124;11.590;2023-02-04T09:43:13;96936.28;;;5.86;79.28
15405;BME280;7801;48.124;11.590;2023-02-04T09:45:40;96939.38;;;5.83;78.19
15405;BME280;7801;48.124;11.590;2023-02-04T09:48:06;96947.41;;;5.88;79.00
15405;BME280;7801;48.124;11.590;2023-02-04T09:50:33;96948.53;;;5.80;78.72
15405;BME280;7801;48.124;11.590;2023-02-04T09:53:04;96956.31;;;6.05;78.54
15405;BME280;7801;48.124;11.590;2023-02-04T09:55:38;96948.19;;;6.07;77.17
15405;BME280;7801;48.124;11.590;2023-02-04T09:58:15;96952.34;;;6.14;76.95
15405;BME280;7801;48.124;11.590;2023-02-04T10:00:51;96957.03;;;6.12;78.09
15405;BME280;7801;48.124;11.590;2023-02-04T10:03:22;96965.31;;;6.16;78.02
15405;BME280;7801;48.124;11.590;2023-02-04T10:05:50;96957.94;;;6.06;78.25
15405;BME280;7801;48.124;11.590;2023-02-04T10:08:22;96962.50;;;5.99;78.59
15405;BME280;7801;48.124;11.590;2023-02-04T10:10:51;96964.69;;;6.02;79.14
15405;BME280;7801;48.124;11.590;2023-02-04T10:13:28;96962.41;;;6.06;78.71
15405;BME280;7801;48.124;11.590;2023-02-04T10:16:00;96977.81;;;5.91;78.80
15405;BME280;7801;48.124;11.590;2023-02-04T10:18:32;96970.81;;;6.14;77.94
15405;BME280;7801;48.124;11.590;2023-02-04T10:21:38;96965.81;;;5.95;78.81
15405;BME280;7801;48.124;11.590;2023-02-04T10:24:20;96972.59;;;6.02;80.97
15405;BME280;7801;48.124;11.590;2023-02-04T10:26:51;96979.72;;;6.13;78.28
15405;BME280;7801;48.124;11.590;2023-02-04T10:29:20;96979.16;;;6.11;78.95
15405;BME280;7801;48.124;11.590;2023-02-04T10:31:49;96983.16;;;6.14;78.87
15405;BME280;7801;48.124;11.590;2023-02-04T10:34:30;96977.81;;;6.20;78.88
15405;BME280;7801;48.124;11.590;2023-02-04T10:36:58;96973.66;;;6.13;80.11
15405;BME280;7801;48.124;11.590;2023-02-04T10:39:29;96983.84;;;6.09;80.68
15405;BME280;7801;48.124;11.590;2023-02-04T10:42:00;96977.00;;;5.90;80.42
15405;BME280;7801;48.124;11.590;2023-02-04T10:44:34;96969.25;;;5.77;81.42
15405;BME280;7801;48.124;11.590;2023-02-04T10:47:24;96983.09;;;5.36;82.39
15405;BME280;7801;48.124;11.590;2023-02-04T10:50:06;96979.47;;;5.12;83.64
15405;BME280;7801;48.124;11.590;2023-02-04T10:52:43;96983.81;;;5.00;84.75
15405;BME280;7801;48.124;11.590;2023-02-04T10:55:15;96974.59;;;5.34;85.86
15405;BME280;7801;48.124;11.590;2023-02-04T10:57:48;96987.53;;;5.53;84.49
15405;BME280;7801;48.124;11.590;2023-02-04T11:00:24;96982.63;;;5.75;83.36
15405;BME280;7801;48.124;11.590;2023-02-04T11:03:17;96982.59;;;6.12;83.92
15405;BME280;7801;48.124;11.590;2023-02-04T11:05:45;96977.63;;;6.45;82.77
15405;BME280;7801;48.124;11.590;2023-02-04T11:08:22;96982.50;;;6.72;80.21
15405;BME280;7801;48.124;11.590;2023-02-04T11:13:37;96981.84;;;7.23;75.48
15405;BME280;7801;48.124;11.590;2023-02-04T11:16:08;96981.72;;;6.95;75.47
15405;BME280;7801;48.124;11.590;2023-02-04T11:24:16;96986.44;;;6.81;72.17
15405;BME280;7801;48.124;11.590;2023-02-04T11:26:49;96982.06;;;6.98;72.95
15405;BME280;7801;48.124;11.590;2023-02-04T11:29:34;96986.66;;;6.79;73.36
15405;BME280;7801;48.124;11.590;2023-02-04T11:34:53;96972.53;;;6.62;75.05
15405;BME280;7801;48.124;11.590;2023-02-04T11:37:37;96979.41;;;6.86;74.93
15405;BME280;7801;48.124;11.590;2023-02-04T11:42:48;96989.38;;;6.61;73.42
15405;BME280;7801;48.124;11.590;2023-02-04T11:45:20;96988.19;;;6.45;73.73
15405;BME280;7801;48.124;11.590;2023-02-04T11:47:49;96986.41;;;6.28;73.22
15405;BME280;7801;48.124;11.590;2023-02-04T11:50:29;96983.47;;;6.36;73.17
15405;BME280;7801;48.124;11.590;2023-02-04T11:53:00;96985.38;;;6.29;72.91
15405;BME280;7801;48.124;11.590;2023-02-04T11:55:30;96983.84;;;6.09;72.11
15405;BME280;7801;48.124;11.590;2023-02-04T11:57:56;96992.00;;;5.71;73.70
15405;BME280;7801;48.124;11.590;2023-02-04T12:00:31;96992.19;;;5.88;74.79
15405;BME280;7801;48.124;11.590;2023-02-04T12:03:00;96987.81;;;6.00;74.36
15405;BME280;7801;48.124;11.590;2023-02-04T12:08:10;96986.78;;;6.01;76.12
15405;BME280;7801;48.124;11.590;2023-02-04T12:10:36;96989.28;;;5.96;75.45
15405;BME280;7801;48.124;11.590;2023-02-04T12:13:11;96981.41;;;6.08;75.16
15405;BME280;7801;48.124;11.590;2023-02-04T12:15:37;96987.53;;;5.90;74.81
15405;BME280;7801;48.124;11.590;2023-02-04T12:18:08;96988.97;;;5.86;76.22
15405;BME280;7801;48.124;11.590;2023-02-04T12:20:35;96983.06;;;5.91;75.23
15405;BME280;7801;48.124;11.590;2023-02-04T12:23:01;96991.37;;;5.87;76.03
15405;BME280;7801;48.124;11.590;2023-02-04T12:25:27;96995.94;;;5.80;76.17
15405;BME280;7801;48.124;11.590;2023-02-04T12:27:53;96998.44;;;5.75;75.02
15405;BME280;7801;48.124;11.590;2023-02-04T12:30:23;96989.97;;;5.37;77.00
15405;BME280;7801;48.124;11.590;2023-02-04T12:32:49;96981.09;;;5.68;77.11
15405;BME280;7801;48.124;11.590;2023-02-04T12:35:15;96982.31;;;5.83;76.47
15405;BME280;7801;48.124;11.590;2023-02-04T12:37:40;96991.03;;;5.66;76.59
15405;BME280;7801;48.124;11.590;2023-02-04T12:40:06;96992.38;;;5.38;78.26
15405;BME280;7801;48.124;11.590;2023-02-04T12:42:32;96992.31;;;5.20;78.98
15405;BME280;7801;48.124;11.590;2023-02-04T12:44:57;96991.84;;;5.48;78.80
15405;BME280;7801;48.124;11.590;2023-02-04T12:47:23;96984.75;;;5.67;77.11
15405;BME280;7801;48.124;11.590;2023-02-04T12:49:48;96984.75;;;5.67;76.74
15405;BME280;7801;48.124;11.590;2023-02-04T12:52:14;96992.97;;;5.59;75.80
15405;BME280;7801;48.124;11.590;2023-02-04T12:54:39;96994.25;;;5.68;76.43
15405;BME280;7801;48.124;11.590;2023-02-04T12:57:04;96987.53;;;5.72;75.00
15405;BME280;7801;48.124;11.590;2023-02-04T12:59:30;96980.22;;;5.74;74.97
15405;BME280;7801;48.124;11.590;2023-02-04T13:01:56;96977.16;;;5.77;75.13
15405;BME280;7801;48.124;11.590;2023-02-04T13:04:22;96976.00;;;5.84;75.30
15405;BME280;7801;48.124;11.590;2023-02-04T13:06:47;96971.62;;;6.27;73.27
15405;BME280;7801;48.124;11.590;2023-02-04T13:09:13;96967.59;;;6.12;73.61
15405;BME280;7801;48.124;11.590;2023-02-04T13:11:38;96965.03;;;6.36;73.08
15405;BME280;7801;48.124;11.590;2023-02-04T13:14:04;96974.59;;;6.60;72.09
15405;BME280;7801;48.124;11.590;2023-02-04T13:16:29;96966.09;;;6.58;71.69
15405;BME280;7801;48.124;11.590;2023-02-04T13:18:54;96971.53;;;6.22;72.30
15405;BME280;7801;48.124;11.590;2023-02-04T13:21:20;96972.72;;;6.07;72.05
15405;BME280;7801;48.124;11.590;2023-02-04T13:23:45;96981.41;;;6.38;71.69
15405;BME280;7801;48.124;11.590;2023-02-04T13:26:10;96970.22;;;6.54;70.16